createdAt,value
2023-04-16T00:01:31.013Z,99722.84
2023-04-16T00:04:00.028Z,99731.63
2023-04-16T00:06:28.952Z,99734.47
2023-04-16T00:08:57.679Z,99736.20
2023-04-16T00:11:26.603Z,99738.99
2023-04-16T00:13:55.191Z,99740.88
2023-04-16T00:16:23.801Z,99746.76
2023-04-16T00:18:52.477Z,99743.62
2023-04-16T00:21:21.114Z,99747.80
2023-04-16T00:23:49.981Z,99741.38
2023-04-16T00:26:18.802Z,99756.32
2023-04-16T00:28:47.792Z,99751.81
2023-04-16T00:31:16.790Z,99756.27
2023-04-16T00:33:45.448Z,99761.46
2023-04-16T00:36:14.015Z,99761.41
2023-04-16T00:38:42.914Z,99760.48
2023-04-16T00:41:11.632Z,99760.66
2023-04-16T00:43:40.608Z,99756.96
2023-04-16T00:46:10.134Z,99758.63
2023-04-16T00:48:40.033Z,99761.57
2023-04-16T00:51:09.564Z,99763.00
2023-04-16T00:53:38.396Z,99761.69
2023-04-16T00:56:08.038Z,99761.84
2023-04-16T00:58:38.452Z,99762.02
2023-04-16T01:01:07.204Z,99765.86
2023-04-16T01:03:44.181Z,99769.73
2023-04-16T01:06:14.275Z,99767.36
2023-04-16T01:08:43.274Z,99762.53
2023-04-16T01:11:12.686Z,99768.73
2023-04-16T01:13:41.610Z,99767.27
2023-04-16T01:16:12.332Z,99765.20
2023-04-16T01:18:41.466Z,99760.63
2023-04-16T01:21:11.084Z,99766.38
2023-04-16T01:23:39.807Z,99766.92
2023-04-16T01:26:08.751Z,99768.95
2023-04-16T01:28:37.342Z,99771.15
2023-04-16T01:31:06.125Z,99764.83
2023-04-16T01:34:21.649Z,99764.40
2023-04-16T01:36:50.294Z,99764.19
2023-04-16T01:39:19.700Z,99760.84
2023-04-16T01:41:48.261Z,99766.74
2023-04-16T01:44:16.842Z,99759.34
2023-04-16T01:46:45.750Z,99764.85
2023-04-16T01:49:14.399Z,99767.17
2023-04-16T01:51:43.125Z,99761.83
2023-04-16T01:54:12.050Z,99763.02
2023-04-16T01:56:41.425Z,99760.50
2023-04-16T01:59:10.879Z,99762.45
2023-04-16T02:01:42.932Z,99759.41
2023-04-16T02:04:12.680Z,99763.41
2023-04-16T02:06:41.917Z,99763.48
2023-04-16T02:09:10.894Z,99761.02
2023-04-16T02:11:41.034Z,99765.42
2023-04-16T02:14:09.672Z,99765.66
2023-04-16T02:16:38.388Z,99763.17
2023-04-16T02:19:48.124Z,99768.40
2023-04-16T02:22:17.501Z,99763.91
2023-04-16T02:24:46.115Z,99771.92
2023-04-16T02:27:15.099Z,99770.14
2023-04-16T02:29:44.469Z,99768.50
2023-04-16T02:32:15.994Z,99757.49
2023-04-16T02:34:46.246Z,99768.39
2023-04-16T02:37:15.591Z,99771.36
2023-04-16T02:39:44.360Z,99770.33
2023-04-16T02:42:13.457Z,99773.75
2023-04-16T02:44:43.367Z,99770.81
2023-04-16T02:47:12.065Z,99769.13
2023-04-16T02:49:40.964Z,99769.76
2023-04-16T02:52:09.578Z,99762.38
2023-04-16T02:54:38.318Z,99770.20
2023-04-16T02:57:07.004Z,99769.73
2023-04-16T02:59:35.824Z,99773.55
2023-04-16T03:02:04.424Z,99773.67
2023-04-16T03:04:33.814Z,99778.48
2023-04-16T03:07:02.569Z,99777.34
2023-04-16T03:09:33.449Z,99777.57
2023-04-16T03:12:02.936Z,99773.94
2023-04-16T03:14:32.365Z,99776.15
2023-04-16T03:17:01.096Z,99775.65
2023-04-16T03:19:29.961Z,99778.89
2023-04-16T03:21:58.515Z,99780.86
2023-04-16T03:24:28.391Z,99781.00
2023-04-16T03:26:59.100Z,99783.47
2023-04-16T03:29:27.737Z,99784.79
2023-04-16T03:31:56.344Z,99788.91
2023-04-16T03:34:25.031Z,99789.38
2023-04-16T03:36:53.659Z,99787.58
2023-04-16T03:39:22.324Z,99792.67
2023-04-16T03:41:51.016Z,99795.13
2023-04-16T03:44:19.917Z,99797.39
2023-04-16T03:46:48.604Z,99802.66
2023-04-16T03:49:17.991Z,99801.77
2023-04-16T03:51:46.921Z,99805.80
2023-04-16T03:54:15.861Z,99806.49
2023-04-16T03:56:46.017Z,99806.13
2023-04-16T03:59:14.699Z,99805.21
2023-04-16T04:01:43.513Z,99806.20
2023-04-16T04:04:12.409Z,99809.80
2023-04-16T04:06:41.391Z,99813.55
2023-04-16T04:09:10.597Z,99806.92
2023-04-16T04:11:39.447Z,99819.19
2023-04-16T04:14:08.269Z,99820.23
2023-04-16T04:16:37.030Z,99814.94
2023-04-16T04:19:05.619Z,99816.52
2023-04-16T04:21:34.194Z,99818.27
2023-04-16T04:24:05.135Z,99814.48
2023-04-16T04:26:35.063Z,99813.83
2023-04-16T04:29:03.785Z,99813.96
2023-04-16T04:31:32.665Z,99812.04
2023-04-16T04:34:01.717Z,99817.15
2023-04-16T04:36:30.372Z,99817.83
2023-04-16T04:38:59.008Z,99822.59
2023-04-16T04:41:27.876Z,99820.27
2023-04-16T04:43:56.758Z,99823.02
2023-04-16T04:46:26.586Z,99826.63
2023-04-16T04:48:55.650Z,99826.39
2023-04-16T04:51:24.404Z,99824.91
2023-04-16T04:53:52.970Z,99828.59
2023-04-16T04:56:22.801Z,99833.19
2023-04-16T04:58:51.674Z,99828.95
2023-04-16T05:01:21.062Z,99839.55
2023-04-16T05:03:49.556Z,99837.00
2023-04-16T05:06:18.122Z,99835.35
2023-04-16T05:08:46.551Z,99839.23
2023-04-16T05:11:14.969Z,99837.32
2023-04-16T05:13:43.387Z,99831.88
2023-04-16T05:16:11.794Z,99843.34
2023-04-16T05:18:40.223Z,99835.71
2023-04-16T05:21:08.625Z,99840.04
2023-04-16T05:23:37.007Z,99841.15
2023-04-16T05:26:05.579Z,99845.13
2023-04-16T05:28:34.060Z,99841.67
2023-04-16T05:31:02.800Z,99841.91
2023-04-16T05:33:31.403Z,99845.86
2023-04-16T05:35:59.712Z,99847.39
2023-04-16T05:38:28.173Z,99845.05
2023-04-16T05:40:56.727Z,99841.60
2023-04-16T05:43:25.653Z,99848.76
2023-04-16T05:45:54.061Z,99852.61
2023-04-16T05:48:22.476Z,99855.27
2023-04-16T05:50:50.848Z,99856.66
2023-04-16T05:53:19.308Z,99854.84
2023-04-16T05:55:47.695Z,99855.98
2023-04-16T05:58:16.138Z,99858.54
2023-04-16T06:00:44.853Z,99861.80
2023-04-16T06:03:13.412Z,99862.89
2023-04-16T06:05:41.877Z,99867.34
2023-04-16T06:08:10.544Z,99861.42
2023-04-16T06:10:39.529Z,99860.89
2023-04-16T06:13:08.032Z,99858.89
2023-04-16T06:15:36.405Z,99866.26
2023-04-16T06:18:05.043Z,99872.11
2023-04-16T06:20:33.479Z,99875.58
2023-04-16T06:23:01.834Z,99876.92
2023-04-16T06:25:30.209Z,99887.36
2023-04-16T06:27:58.524Z,99891.52
2023-04-16T06:30:27.003Z,99892.56
2023-04-16T06:32:55.538Z,99895.70
2023-04-16T06:35:24.138Z,99895.11
2023-04-16T06:37:52.616Z,99899.41
2023-04-16T06:40:21.077Z,99900.69
2023-04-16T06:42:49.568Z,99894.15
2023-04-16T06:45:18.016Z,99891.50
2023-04-16T06:47:46.563Z,99887.48
2023-04-16T06:50:15.108Z,99884.52
2023-04-16T06:52:43.596Z,99885.94
2023-04-16T06:55:12.285Z,99887.38
2023-04-16T06:57:41.281Z,99884.41
2023-04-16T07:00:10.581Z,99878.48
2023-04-16T07:02:39.105Z,99883.13
2023-04-16T07:05:09.292Z,99876.95
2023-04-16T07:07:37.684Z,99878.36
2023-04-16T07:10:06.526Z,99881.08
2023-04-16T07:12:35.031Z,99882.20
2023-04-16T07:15:03.595Z,99885.50
2023-04-16T07:17:32.215Z,99884.35
2023-04-16T07:20:00.557Z,99887.31
2023-04-16T07:22:29.029Z,99886.02
2023-04-16T07:24:57.619Z,99894.09
2023-04-16T07:27:26.075Z,99898.02
2023-04-16T07:29:55.545Z,99893.59
2023-04-16T07:32:24.493Z,99887.25
2023-04-16T07:34:53.099Z,99873.03
2023-04-16T07:37:22.443Z,99876.70
2023-04-16T07:39:51.982Z,99873.95
2023-04-16T07:42:21.021Z,99879.48
2023-04-16T07:44:49.517Z,99880.75
2023-04-16T07:47:18.112Z,99885.02
2023-04-16T07:49:46.636Z,99880.08
2023-04-16T07:52:14.983Z,99889.45
2023-04-16T07:54:43.600Z,99890.18
2023-04-16T07:57:12.462Z,99893.20
2023-04-16T07:59:41.155Z,99887.48
2023-04-16T08:02:13.631Z,99880.02
2023-04-16T08:04:43.934Z,99892.00
2023-04-16T08:07:12.833Z,99892.84
2023-04-16T08:10:08.562Z,99898.05
2023-04-16T08:12:37.052Z,99903.60
2023-04-16T08:15:06.372Z,99899.39
2023-04-16T08:17:35.648Z,99900.62
2023-04-16T08:20:04.723Z,99891.73
2023-04-16T08:22:33.707Z,99899.58
2023-04-16T08:25:04.088Z,99896.13
2023-04-16T08:27:32.453Z,99894.68
2023-04-16T08:30:00.853Z,99891.72
2023-04-16T08:32:29.290Z,99890.36
2023-04-16T08:34:58.123Z,99887.19
2023-04-16T08:37:26.993Z,99886.70
2023-04-16T08:39:55.509Z,99889.52
2023-04-16T08:42:32.816Z,99893.63
2023-04-16T08:45:08.351Z,99891.61
2023-04-16T08:47:39.729Z,99891.13
2023-04-16T08:50:11.165Z,99893.05
2023-04-16T08:52:46.128Z,99893.88
2023-04-16T08:55:14.987Z,99893.66
2023-04-16T08:57:48.193Z,99892.46
2023-04-16T09:00:16.983Z,99897.31
2023-04-16T09:02:45.923Z,99900.23
2023-04-16T09:05:17.368Z,99905.09
2023-04-16T09:07:46.749Z,99909.31
2023-04-16T09:10:16.279Z,99907.30
2023-04-16T09:12:44.963Z,99911.10
2023-04-16T09:15:14.159Z,99912.37
2023-04-16T09:17:42.945Z,99910.44
2023-04-16T09:20:11.574Z,99909.69
2023-04-16T09:22:42.865Z,99916.09
2023-04-16T09:25:11.617Z,99917.57
2023-04-16T09:27:40.267Z,99919.73
2023-04-16T09:30:25.774Z,99922.21
2023-04-16T09:33:12.144Z,99927.69
2023-04-16T09:35:48.551Z,99928.67
2023-04-16T09:38:17.191Z,99931.73
2023-04-16T09:40:47.675Z,99939.45
2023-04-16T09:43:19.670Z,99939.91
2023-04-16T09:45:55.488Z,99944.16
2023-04-16T09:48:31.733Z,99948.63
2023-04-16T09:51:00.942Z,99946.19
2023-04-16T09:53:31.570Z,99944.02
2023-04-16T09:56:01.523Z,99948.89
2023-04-16T09:58:29.977Z,99952.64
2023-04-16T10:01:04.503Z,99949.13
2023-04-16T10:03:34.828Z,99941.52
2023-04-16T10:06:16.812Z,99939.49
2023-04-16T10:08:58.072Z,99937.90
2023-04-16T10:11:26.639Z,99931.53
2023-04-16T10:13:54.945Z,99929.50
2023-04-16T10:16:24.070Z,99936.71
2023-04-16T10:18:53.522Z,99939.56
2023-04-16T10:21:22.301Z,99941.63
2023-04-16T10:23:52.273Z,99932.98
2023-04-16T10:26:21.720Z,99936.27
2023-04-16T10:28:50.269Z,99937.86
2023-04-16T10:31:18.777Z,99944.23
2023-04-16T10:33:47.623Z,99940.20
2023-04-16T10:36:26.810Z,99939.33
2023-04-16T10:38:59.729Z,99932.95
2023-04-16T10:41:28.285Z,99943.36
2023-04-16T10:44:10.217Z,99948.52
2023-04-16T10:46:52.113Z,99949.88
2023-04-16T10:49:25.639Z,99951.42
2023-04-16T10:51:57.758Z,99952.06
2023-04-16T10:54:27.215Z,99952.38
2023-04-16T10:57:04.366Z,99952.02
2023-04-16T10:59:35.210Z,99950.79
2023-04-16T11:02:19.682Z,99949.11
2023-04-16T11:04:49.869Z,99948.31
2023-04-16T11:07:32.089Z,99946.76
2023-04-16T11:10:07.423Z,99943.86
2023-04-16T11:12:39.517Z,99946.86
2023-04-16T11:15:10.057Z,99946.32
2023-04-16T11:17:45.484Z,99944.08
2023-04-16T11:20:24.953Z,99938.86
2023-04-16T11:22:55.592Z,99941.73
2023-04-16T11:25:25.534Z,99939.19
2023-04-16T11:27:54.066Z,99932.53
2023-04-16T11:30:30.693Z,99934.81
2023-04-16T11:32:59.158Z,99933.19
2023-04-16T11:35:27.793Z,99929.23
2023-04-16T11:37:57.269Z,99935.10
2023-04-16T11:40:29.562Z,99940.13
2023-04-16T11:43:12.833Z,99940.65
2023-04-16T11:46:02.631Z,99940.45
2023-04-16T11:48:50.132Z,99938.73
2023-04-16T11:51:19.407Z,99937.44
2023-04-16T11:53:49.691Z,99921.44
2023-04-16T11:56:29.587Z,99936.37
2023-04-16T11:59:10.994Z,99936.80
2023-04-16T12:01:41.815Z,99941.77
2023-04-16T12:04:10.653Z,99938.67
2023-04-16T12:06:39.183Z,99937.42
2023-04-16T12:09:27.441Z,99936.03
2023-04-16T12:11:55.939Z,99938.89
2023-04-16T12:14:24.478Z,99937.81
2023-04-16T12:16:53.157Z,99933.36
2023-04-16T12:19:21.744Z,99932.90
2023-04-16T12:21:51.045Z,99933.58
2023-04-16T12:24:24.367Z,99926.84
2023-04-16T12:27:03.433Z,99927.66
2023-04-16T12:29:32.252Z,99916.33
2023-04-16T12:32:00.836Z,99932.08
2023-04-16T12:34:48.581Z,99937.15
2023-04-16T12:37:17.618Z,99941.27
2023-04-16T12:39:47.890Z,99938.88
2023-04-16T12:42:16.790Z,99943.29
2023-04-16T12:44:45.164Z,99941.83
2023-04-16T12:47:13.587Z,99936.80
2023-04-16T12:49:42.160Z,99930.89
2023-04-16T12:52:11.080Z,99929.85
2023-04-16T12:54:39.453Z,99927.38
2023-04-16T12:57:07.768Z,99931.02
2023-04-16T12:59:36.343Z,99924.54
2023-04-16T13:02:04.875Z,99918.44
2023-04-16T13:04:33.473Z,99912.02
2023-04-16T13:07:02.406Z,99915.24
2023-04-16T13:09:31.079Z,99912.40
2023-04-16T13:11:59.434Z,99906.83
2023-04-16T13:14:27.856Z,99907.48
2023-04-16T13:16:56.304Z,99908.99
2023-04-16T13:19:24.741Z,99908.25
2023-04-16T13:21:53.575Z,99907.23
2023-04-16T13:24:23.313Z,99910.40
2023-04-16T13:26:56.588Z,99906.86
2023-04-16T13:29:25.080Z,99904.86
2023-04-16T13:31:53.643Z,99906.09
2023-04-16T13:34:22.054Z,99921.59
2023-04-16T13:36:50.388Z,99925.02
2023-04-16T13:39:18.877Z,99927.80
2023-04-16T13:41:49.259Z,99926.07
2023-04-16T13:44:17.796Z,99921.79
2023-04-16T13:46:48.015Z,99922.61
2023-04-16T13:49:16.528Z,99915.76
2023-04-16T13:51:45.050Z,99916.46
2023-04-16T13:54:13.527Z,99917.73
2023-04-16T13:56:41.949Z,99918.77
2023-04-16T13:59:10.545Z,99921.11
2023-04-16T14:01:39.018Z,99918.79
2023-04-16T14:04:07.643Z,99918.33
2023-04-16T14:06:36.139Z,99915.77
2023-04-16T14:09:04.886Z,99917.87
2023-04-16T14:11:33.266Z,99922.02
2023-04-16T14:14:01.688Z,99926.38
2023-04-16T14:16:30.120Z,99930.17
2023-04-16T14:18:58.552Z,99926.74
2023-04-16T14:21:27.505Z,99926.30
2023-04-16T14:23:56.097Z,99924.90
2023-04-16T14:26:24.539Z,99920.20
2023-04-16T14:28:52.961Z,99920.33
2023-04-16T14:31:21.392Z,99920.17
2023-04-16T14:33:49.752Z,99908.58
2023-04-16T14:36:18.149Z,99911.59
2023-04-16T14:38:48.110Z,99919.46
2023-04-16T14:41:16.522Z,99920.07
2023-04-16T14:43:45.236Z,99920.86
2023-04-16T14:46:17.937Z,99920.77
2023-04-16T14:48:46.493Z,99917.92
2023-04-16T14:51:15.082Z,99925.71
2023-04-16T14:53:44.122Z,99924.52
2023-04-16T14:56:13.734Z,99934.55
2023-04-16T14:58:43.635Z,99937.60
2023-04-16T15:01:13.863Z,99933.07
2023-04-16T15:03:43.497Z,99931.66
2023-04-16T15:06:12.063Z,99934.40
2023-04-16T15:08:40.405Z,99936.92
2023-04-16T15:11:08.774Z,99934.89
2023-04-16T15:13:37.161Z,99936.20
2023-04-16T15:16:05.800Z,99933.80
2023-04-16T15:18:34.212Z,99930.54
2023-04-16T15:21:02.531Z,99931.00
2023-04-16T15:23:31.076Z,99919.73
2023-04-16T15:25:59.546Z,99929.23
2023-04-16T15:28:27.900Z,99926.41
2023-04-16T15:30:56.786Z,99915.35
2023-04-16T15:33:26.620Z,99919.66
2023-04-16T15:35:55.001Z,99916.45
2023-04-16T15:38:23.326Z,99926.55
2023-04-16T15:40:52.036Z,99935.45
2023-04-16T15:43:20.413Z,99941.12
2023-04-16T15:45:48.859Z,99943.01
2023-04-16T15:48:17.458Z,99944.77
2023-04-16T15:50:46.084Z,99939.55
2023-04-16T15:53:14.585Z,99936.98
2023-04-16T15:55:43.641Z,99944.36
2023-04-16T15:58:13.067Z,99944.04
2023-04-16T16:00:42.064Z,99940.34
2023-04-16T16:03:11.346Z,99938.70
2023-04-16T16:05:40.664Z,99944.70
2023-04-16T16:08:09.092Z,99948.42
2023-04-16T16:10:37.384Z,99949.16
2023-04-16T16:13:08.186Z,99948.09
2023-04-16T16:15:36.589Z,99944.30
2023-04-16T16:18:05.482Z,99936.73
2023-04-16T16:20:34.764Z,99928.89
2023-04-16T16:23:03.544Z,99932.86
2023-04-16T16:25:32.085Z,99925.52
2023-04-16T16:28:00.805Z,99937.86
2023-04-16T16:30:29.214Z,99934.70
2023-04-16T16:32:58.043Z,99945.27
2023-04-16T16:35:26.595Z,99950.95
2023-04-16T16:37:57.416Z,99960.27
2023-04-16T16:40:25.890Z,99961.91
2023-04-16T16:42:54.438Z,99959.48
2023-04-16T16:45:23.327Z,99953.77
2023-04-16T16:47:52.032Z,99948.77
2023-04-16T16:50:20.632Z,99951.90
2023-04-16T16:52:48.940Z,99958.75
2023-04-16T16:55:18.765Z,99960.98
2023-04-16T16:57:47.322Z,99956.83
2023-04-16T17:00:19.982Z,99961.44
2023-04-16T17:02:51.442Z,99960.36
2023-04-16T17:05:20.176Z,99958.83
2023-04-16T17:07:48.537Z,99956.98
2023-04-16T17:10:21.163Z,99958.50
2023-04-16T17:12:51.254Z,99961.02
2023-04-16T17:15:21.804Z,99963.80
2023-04-16T17:17:50.721Z,99967.87
2023-04-16T17:20:20.166Z,99970.90
2023-04-16T17:22:48.658Z,99974.14
2023-04-16T17:25:17.136Z,99978.91
2023-04-16T17:27:45.517Z,99980.55
2023-04-16T17:30:14.605Z,99980.34
2023-04-16T17:32:42.967Z,99983.36
2023-04-16T17:35:11.484Z,99982.31
2023-04-16T17:37:40.256Z,99981.35
2023-04-16T17:40:10.187Z,99986.30
2023-04-16T17:42:38.783Z,99991.93
2023-04-16T17:45:08.024Z,99990.80
2023-04-16T17:47:36.678Z,99992.23
2023-04-16T17:50:05.762Z,99990.45
2023-04-16T17:52:34.622Z,99982.39
2023-04-16T17:55:03.998Z,99979.95
2023-04-16T17:57:32.760Z,99982.23
2023-04-16T18:00:01.563Z,99980.23
2023-04-16T18:02:41.099Z,99974.14
2023-04-16T18:05:10.201Z,99979.00
2023-04-16T18:07:39.432Z,99981.63
2023-04-16T18:10:08.972Z,99989.21
2023-04-16T18:12:37.477Z,99991.73
2023-04-16T18:15:07.327Z,99992.04
2023-04-16T18:17:35.790Z,99990.09
2023-04-16T18:20:07.226Z,99986.36
2023-04-16T18:22:35.571Z,99981.04
2023-04-16T18:25:05.448Z,99979.87
2023-04-16T18:27:33.950Z,99964.39
2023-04-16T18:30:04.001Z,99982.02
2023-04-16T18:32:33.569Z,99981.05
2023-04-16T18:35:02.445Z,99988.30
2023-04-16T18:37:31.065Z,99986.23
2023-04-16T18:39:59.743Z,99984.54
2023-04-16T18:42:28.647Z,99973.92
2023-04-16T18:44:57.343Z,99969.59
2023-04-16T18:47:27.730Z,99964.98
2023-04-16T18:49:56.216Z,99969.31
2023-04-16T18:52:25.103Z,99967.84
2023-04-16T18:54:53.593Z,99971.02
2023-04-16T18:57:21.977Z,99964.98
2023-04-16T18:59:50.465Z,99969.25
2023-04-16T19:02:18.972Z,99962.20
2023-04-16T19:04:47.668Z,99961.75
2023-04-16T19:07:16.216Z,99969.80
2023-04-16T19:09:44.594Z,99966.77
2023-04-16T19:12:12.998Z,99960.56
2023-04-16T19:14:41.596Z,99964.57
2023-04-16T19:17:10.026Z,99971.61
2023-04-16T19:19:38.495Z,99969.05
2023-04-16T19:22:06.866Z,99960.41
2023-04-16T19:24:35.670Z,99962.34
2023-04-16T19:27:04.073Z,99967.09
2023-04-16T19:29:35.605Z,99962.14
2023-04-16T19:32:04.179Z,99963.73
2023-04-16T19:34:32.655Z,99965.59
2023-04-16T19:37:01.033Z,99966.27
2023-04-16T19:39:29.427Z,99963.61
2023-04-16T19:41:57.952Z,99961.75
2023-04-16T19:44:27.861Z,99958.72
2023-04-16T19:46:56.690Z,99957.62
2023-04-16T19:49:34.553Z,99956.58
2023-04-16T19:52:03.160Z,99959.45
2023-04-16T19:54:33.892Z,99955.30
2023-04-16T19:57:02.438Z,99949.56
2023-04-16T19:59:32.510Z,99945.54
2023-04-16T20:02:01.258Z,99943.35
2023-04-16T20:04:29.835Z,99942.80
2023-04-16T20:06:58.978Z,99940.77
2023-04-16T20:09:27.455Z,99942.67
2023-04-16T20:11:55.929Z,99943.64
2023-04-16T20:14:24.265Z,99943.28
2023-04-16T20:16:52.981Z,99946.59
2023-04-16T20:19:22.374Z,99946.35
2023-04-16T20:21:50.962Z,99950.94
2023-04-16T20:24:19.696Z,99949.27
2023-04-16T20:26:48.047Z,99951.95
2023-04-16T20:29:16.751Z,99950.91
2023-04-16T20:31:46.337Z,99946.99
2023-04-16T20:34:14.919Z,99950.96
2023-04-16T20:36:43.503Z,99950.92
2023-04-16T20:39:12.640Z,99950.57
2023-04-16T20:41:44.375Z,99950.64
2023-04-16T20:44:18.274Z,99951.91
2023-04-16T20:46:49.875Z,99945.12
2023-04-16T20:49:18.844Z,99936.64
2023-04-16T20:51:47.174Z,99941.36
2023-04-16T20:54:15.604Z,99940.55
2023-04-16T20:56:45.082Z,99932.25
2023-04-16T20:59:13.694Z,99936.66
2023-04-16T21:01:42.101Z,99935.18
2023-04-16T21:04:10.877Z,99935.98
2023-04-16T21:06:43.225Z,99934.98
2023-04-16T21:09:12.104Z,99934.41
2023-04-16T21:11:40.963Z,99929.11
2023-04-16T21:14:09.409Z,99931.84
2023-04-16T21:16:37.897Z,99927.61
2023-04-16T21:19:07.077Z,99918.40
2023-04-16T21:21:35.655Z,99918.41
2023-04-16T21:24:04.317Z,99921.45
2023-04-16T21:26:32.701Z,99915.05
2023-04-16T21:29:01.316Z,99921.29
2023-04-16T21:31:29.771Z,99922.46
2023-04-16T21:33:58.102Z,99919.04
2023-04-16T21:36:27.983Z,99915.92
2023-04-16T21:38:56.385Z,99912.64
2023-04-16T21:41:24.759Z,99902.91
2023-04-16T21:43:53.278Z,99903.48
2023-04-16T21:46:21.859Z,99901.16
2023-04-16T21:48:51.187Z,99893.20
2023-04-16T21:51:20.348Z,99892.61
2023-04-16T21:53:48.648Z,99894.44
2023-04-16T21:56:17.069Z,99894.23
2023-04-16T21:58:45.697Z,99899.96
2023-04-16T22:01:14.435Z,99896.75
2023-04-16T22:03:42.921Z,99906.20
2023-04-16T22:06:11.854Z,99906.13
2023-04-16T22:08:40.237Z,99900.02
2023-04-16T22:11:08.675Z,99895.67
2023-04-16T22:13:36.992Z,99898.33
2023-04-16T22:16:05.956Z,99899.93
2023-04-16T22:18:34.361Z,99904.40
2023-04-16T22:21:03.066Z,99908.02
2023-04-16T22:23:31.634Z,99911.23
2023-04-16T22:26:03.078Z,99918.44
2023-04-16T22:28:31.510Z,99920.63
2023-04-16T22:30:59.925Z,99914.02
2023-04-16T22:33:31.311Z,99922.27
2023-04-16T22:36:00.414Z,99920.81
2023-04-16T22:38:28.736Z,99922.37
2023-04-16T22:40:57.161Z,99924.75
2023-04-16T22:43:25.655Z,99924.30
2023-04-16T22:46:04.863Z,99925.11
2023-04-16T22:48:36.505Z,99921.61
2023-04-16T22:51:09.293Z,99920.54
2023-04-16T22:53:38.287Z,99912.54
2023-04-16T22:56:07.105Z,99910.73
2023-04-16T22:58:35.885Z,99908.94
2023-04-16T23:01:04.505Z,99906.70
2023-04-16T23:03:33.589Z,99906.52
2023-04-16T23:06:03.777Z,99899.84
2023-04-16T23:08:32.250Z,99902.22
2023-04-16T23:11:00.762Z,99904.16
2023-04-16T23:13:29.236Z,99903.97
2023-04-16T23:15:57.911Z,99904.92
2023-04-16T23:18:26.267Z,99903.52
2023-04-16T23:20:54.641Z,99899.87
2023-04-16T23:23:22.941Z,99898.65
2023-04-16T23:25:55.042Z,99897.61
2023-04-16T23:28:23.357Z,99891.74
2023-04-16T23:30:53.079Z,99898.30
2023-04-16T23:33:21.726Z,99893.87
2023-04-16T23:35:50.156Z,99893.77
2023-04-16T23:38:18.544Z,99898.19
2023-04-16T23:40:46.996Z,99891.14
2023-04-16T23:43:15.635Z,99895.48
2023-04-16T23:45:44.095Z,99894.59
2023-04-16T23:48:12.566Z,99889.66
2023-04-16T23:50:40.966Z,99891.87
2023-04-16T23:53:09.308Z,99893.31
2023-04-16T23:55:37.623Z,99892.78
2023-04-16T23:58:06.098Z,99892.45
